sensor_id;sensor_type;location;lat;lon;timestamp;pressure;altitude;pressure_sealevel;temperature;humidity
66857;BME280;53766;50.280;19.160;2022-12-15T00:00:01;97028.56;;;15.50;38.40
66857;BME280;53766;50.280;19.160;2022-12-15T00:03:08;97023.25;;;15.50;38.48
66857;BME280;53766;50.280;19.160;2022-12-15T00:05:55;97020.84;;;15.49;38.19
66857;BME280;53766;50.280;19.160;2022-12-15T00:08:41;97027.41;;;15.46;38.39
66857;BME280;53766;50.280;19.160;2022-12-15T00:11:27;97023.72;;;15.47;38.60
66857;BME280;53766;50.280;19.160;2022-12-15T00:14:13;97029.81;;;15.48;38.22
66857;BME280;53766;50.280;19.160;2022-12-15T00:16:59;97036.16;;;15.47;38.47
66857;BME280;53766;50.280;19.160;2022-12-15T00:19:45;97034.78;;;15.44;38.49
66857;BME280;53766;50.280;19.160;2022-12-15T00:22:31;97042.13;;;15.42;38.29
66857;BME280;53766;50.280;19.160;2022-12-15T00:25:17;97039.25;;;15.43;38.34
66857;BME280;53766;50.280;19.160;2022-12-15T00:28:04;97047.44;;;15.42;38.56
66857;BME280;53766;50.280;19.160;2022-12-15T00:30:50;97042.13;;;15.42;38.50
66857;BME280;53766;50.280;19.160;2022-12-15T00:33:37;97045.81;;;15.41;38.42
66857;BME280;53766;50.280;19.160;2022-12-15T00:36:23;97048.47;;;15.41;38.28
66857;BME280;53766;50.280;19.160;2022-12-15T00:39:09;97052.38;;;15.38;38.52
66857;BME280;53766;50.280;19.160;2022-12-15T00:41:37;97063.78;;;15.39;38.42
66857;BME280;53766;50.280;19.160;2022-12-15T00:44:05;97076.03;;;15.40;38.44
66857;BME280;53766;50.280;19.160;2022-12-15T00:46:32;97065.84;;;15.37;38.54
66857;BME280;53766;50.280;19.160;2022-12-15T00:49:18;97079.94;;;15.37;38.43
66857;BME280;53766;50.280;19.160;2022-12-15T00:52:05;97071.13;;;15.37;38.53
66857;BME280;53766;50.280;19.160;2022-12-15T00:54:51;97081.75;;;15.37;38.49
66857;BME280;53766;50.280;19.160;2022-12-15T00:57:37;97081.75;;;15.37;38.31
66857;BME280;53766;50.280;19.160;2022-12-15T01:00:23;97080.13;;;15.36;38.30
66857;BME280;53766;50.280;19.160;2022-12-15T01:03:15;97076.88;;;15.34;38.49
66857;BME280;53766;50.280;19.160;2022-12-15T01:06:06;97089.94;;;15.35;38.39
66857;BME280;53766;50.280;19.160;2022-12-15T01:08:53;97091.75;;;15.35;38.59
66857;BME280;53766;50.280;19.160;2022-12-15T01:11:39;97089.34;;;15.33;38.62
66857;BME280;53766;50.280;19.160;2022-12-15T01:14:26;97087.50;;;15.34;38.44
66857;BME280;53766;50.280;19.160;2022-12-15T01:17:13;97086.91;;;15.32;38.50
66857;BME280;53766;50.280;19.160;2022-12-15T01:19:59;97091.81;;;15.28;38.53
66857;BME280;53766;50.280;19.160;2022-12-15T01:22:45;97091.22;;;15.26;38.53
66857;BME280;53766;50.280;19.160;2022-12-15T01:25:14;97087.75;;;15.26;38.85
66857;BME280;53766;50.280;19.160;2022-12-15T01:27:42;97095.13;;;15.23;38.94
66857;BME280;53766;50.280;19.160;2022-12-15T01:30:12;97095.34;;;15.22;38.67
66857;BME280;53766;50.280;19.160;2022-12-15T01:32:40;97095.56;;;15.20;38.66
66857;BME280;53766;50.280;19.160;2022-12-15T01:35:12;97091.88;;;15.21;38.98
66857;BME280;53766;50.280;19.160;2022-12-15T01:37:40;97096.59;;;15.19;38.87
66857;BME280;53766;50.280;19.160;2022-12-15T01:40:12;97100.28;;;15.18;38.81
66857;BME280;53766;50.280;19.160;2022-12-15T01:42:58;97108.22;;;15.18;38.71
66857;BME280;53766;50.280;19.160;2022-12-15T01:50:32;97110.88;;;15.18;39.11
66857;BME280;53766;50.280;19.160;2022-12-15T01:53:02;97109.25;;;15.17;39.07
66857;BME280;53766;50.280;19.160;2022-12-15T01:55:31;97118.25;;;15.16;38.99
66857;BME280;53766;50.280;19.160;2022-12-15T01:58:02;97118.25;;;15.16;38.72
66857;BME280;53766;50.280;19.160;2022-12-15T02:00:34;97122.13;;;15.14;38.74
66857;BME280;53766;50.280;19.160;2022-12-15T02:03:03;97124.78;;;15.14;39.09
66857;BME280;53766;50.280;19.160;2022-12-15T02:05:33;97130.91;;;15.14;39.07
66857;BME280;53766;50.280;19.160;2022-12-15T02:08:02;97122.75;;;15.16;38.97
66857;BME280;53766;50.280;19.160;2022-12-15T02:13:37;97127.22;;;15.15;39.38
66857;BME280;53766;50.280;19.160;2022-12-15T02:27:33;97157.41;;;15.14;39.12
66857;BME280;53766;50.280;19.160;2022-12-15T02:32:53;97159.47;;;15.12;39.15
66857;BME280;53766;50.280;19.160;2022-12-15T02:38:33;97161.31;;;15.12;39.50
66857;BME280;53766;50.280;19.160;2022-12-15T02:41:04;97163.97;;;15.12;39.41
66857;BME280;53766;50.280;19.160;2022-12-15T02:43:34;97165.22;;;15.09;39.12
66857;BME280;53766;50.280;19.160;2022-12-15T02:48:47;97177.44;;;15.10;39.29
66857;BME280;53766;50.280;19.160;2022-12-15T02:51:31;97174.19;;;15.08;39.21
66857;BME280;53766;50.280;19.160;2022-12-15T02:54:07;97173.16;;;15.09;39.52
66857;BME280;53766;50.280;19.160;2022-12-15T02:56:43;97176.84;;;15.08;39.40
66857;BME280;53766;50.280;19.160;2022-12-15T03:01:48;97173.78;;;15.11;39.14
66857;BME280;53766;50.280;19.160;2022-12-15T03:04:18;97185.56;;;15.15;39.24
66857;BME280;53766;50.280;19.160;2022-12-15T03:06:53;97178.63;;;15.14;39.49
66857;BME280;53766;50.280;19.160;2022-12-15T03:09:31;97184.75;;;15.15;39.38
66857;BME280;53766;50.280;19.160;2022-12-15T03:11:59;97184.75;;;15.15;39.17
66857;BME280;53766;50.280;19.160;2022-12-15T03:14:27;97193.75;;;15.14;39.10
66857;BME280;53766;50.280;19.160;2022-12-15T03:16:54;97188.81;;;15.17;39.29
66857;BME280;53766;50.280;19.160;2022-12-15T03:19:22;97191.69;;;15.16;39.19
66857;BME280;53766;50.280;19.160;2022-12-15T03:21:51;97201.47;;;15.15;39.18
66857;BME280;53766;50.280;19.160;2022-12-15T03:24:18;97203.31;;;15.15;39.34
66857;BME280;53766;50.280;19.160;2022-12-15T03:26:46;97203.09;;;15.16;39.09
66857;BME280;53766;50.280;19.160;2022-12-15T03:29:16;97211.25;;;15.15;39.47
66857;BME280;53766;50.280;19.160;2022-12-15T03:31:44;97212.06;;;15.15;39.36
66857;BME280;53766;50.280;19.160;2022-12-15T03:34:12;97222.69;;;15.15;39.05
66857;BME280;53766;50.280;19.160;2022-12-15T03:36:40;97219.22;;;15.15;39.33
66857;BME280;53766;50.280;19.160;2022-12-15T03:39:07;97221.06;;;15.14;39.18
66857;BME280;53766;50.280;19.160;2022-12-15T03:41:34;97227.97;;;15.15;39.10
66857;BME280;53766;50.280;19.160;2022-12-15T03:44:03;97227.97;;;15.15;39.24
66857;BME280;53766;50.280;19.160;2022-12-15T03:46:30;97221.88;;;15.15;39.33
66857;BME280;53766;50.280;19.160;2022-12-15T03:48:58;97230.63;;;15.15;39.15
66857;BME280;53766;50.280;19.160;2022-12-15T03:51:25;97230.88;;;15.14;39.08
66857;BME280;53766;50.280;19.160;2022-12-15T03:53:52;97234.31;;;15.14;39.07
66857;BME280;53766;50.280;19.160;2022-12-15T03:56:20;97239.84;;;15.13;39.29
66857;BME280;53766;50.280;19.160;2022-12-15T03:58:48;97241.47;;;15.14;39.15
66857;BME280;53766;50.280;19.160;2022-12-15T04:01:30;97247.59;;;15.14;39.44
66857;BME280;53766;50.280;19.160;2022-12-15T04:04:00;97250.44;;;15.13;39.04
66857;BME280;53766;50.280;19.160;2022-12-15T04:06:29;97251.47;;;15.12;38.98
66857;BME280;53766;50.280;19.160;2022-12-15T04:08:56;97257.38;;;15.14;39.13
66857;BME280;53766;50.280;19.160;2022-12-15T04:11:24;97253.69;;;15.15;39.28
66857;BME280;53766;50.280;19.160;2022-12-15T04:13:51;97254.94;;;15.12;39.07
66857;BME280;53766;50.280;19.160;2022-12-15T04:16:19;97254.13;;;15.12;39.31
66857;BME280;53766;50.280;19.160;2022-12-15T04:18:47;97263.94;;;15.11;39.16
66857;BME280;53766;50.280;19.160;2022-12-15T04:21:38;97260.25;;;15.12;39.42
66857;BME280;53766;50.280;19.160;2022-12-15T04:24:05;97267.59;;;15.10;39.28
66857;BME280;53766;50.280;19.160;2022-12-15T04:26:51;97269.25;;;15.11;39.36
66857;BME280;53766;50.280;19.160;2022-12-15T04:29:37;97273.69;;;15.11;39.15
66857;BME280;53766;50.280;19.160;2022-12-15T04:32:23;97277.41;;;15.10;39.13
66857;BME280;53766;50.280;19.160;2022-12-15T04:35:10;97279.25;;;15.09;39.33
66857;BME280;53766;50.280;19.160;2022-12-15T04:37:56;97288.81;;;15.10;38.96
66857;BME280;53766;50.280;19.160;2022-12-15T04:40:43;97288.81;;;15.10;39.41
66857;BME280;53766;50.280;19.160;2022-12-15T04:43:28;97292.50;;;15.09;39.31
66857;BME280;53766;50.280;19.160;2022-12-15T04:46:15;97288.00;;;15.10;39.38
66857;BME280;53766;50.280;19.160;2022-12-15T04:49:01;97292.50;;;15.09;39.00
66857;BME280;53766;50.280;19.160;2022-12-15T04:51:46;97310.03;;;15.10;39.26
66857;BME280;53766;50.280;19.160;2022-12-15T04:54:32;97304.72;;;15.10;39.19
66857;BME280;53766;50.280;19.160;2022-12-15T04:57:18;97312.06;;;15.08;38.99
66857;BME280;53766;50.280;19.160;2022-12-15T05:00:04;97313.72;;;15.09;39.00
66857;BME280;53766;50.280;19.160;2022-12-15T05:02:50;97323.47;;;15.09;39.36
66857;BME280;53766;50.280;19.160;2022-12-15T05:05:44;97322.69;;;15.08;39.01
66857;BME280;53766;50.280;19.160;2022-12-15T05:08:30;97329.63;;;15.09;39.17
66857;BME280;53766;50.280;19.160;2022-12-15T05:11:16;97333.28;;;15.08;39.03
66857;BME280;53766;50.280;19.160;2022-12-15T05:14:03;97333.28;;;15.08;38.99
66857;BME280;53766;50.280;19.160;2022-12-15T05:16:49;97345.72;;;15.08;39.41
66857;BME280;53766;50.280;19.160;2022-12-15T05:19:36;97348.59;;;15.06;39.33
66857;BME280;53766;50.280;19.160;2022-12-15T05:22:22;97344.31;;;15.05;39.39
66857;BME280;53766;50.280;19.160;2022-12-15T05:25:09;97351.25;;;15.06;39.13
66857;BME280;53766;50.280;19.160;2022-12-15T05:27:55;97366.13;;;15.07;39.34
66857;BME280;53766;50.280;19.160;2022-12-15T05:30:41;97380.22;;;15.08;39.06
66857;BME280;53766;50.280;19.160;2022-12-15T05:33:26;97390.00;;;15.07;38.94
66857;BME280;53766;50.280;19.160;2022-12-15T05:35:55;97388.38;;;15.06;39.32
66857;BME280;53766;50.280;19.160;2022-12-15T05:38:24;97381.44;;;15.05;39.37
66857;BME280;53766;50.280;19.160;2022-12-15T05:40:51;97382.25;;;15.06;39.07
66857;BME280;53766;50.280;19.160;2022-12-15T05:43:19;97381.44;;;15.05;39.42
66857;BME280;53766;50.280;19.160;2022-12-15T05:45:52;97382.44;;;15.04;39.32
66857;BME280;53766;50.280;19.160;2022-12-15T05:48:20;97391.44;;;15.03;39.26
66857;BME280;53766;50.280;19.160;2022-12-15T05:50:47;97393.66;;;15.06;39.17
66857;BME280;53766;50.280;19.160;2022-12-15T05:53:15;97388.78;;;15.03;39.38
66857;BME280;53766;50.280;19.160;2022-12-15T05:55:43;97403.06;;;15.02;39.39
66857;BME280;53766;50.280;19.160;2022-12-15T05:58:11;97407.97;;;15.05;39.15
66857;BME280;53766;50.280;19.160;2022-12-15T06:00:38;97416.91;;;15.04;39.21
66857;BME280;53766;50.280;19.160;2022-12-15T06:03:06;97417.97;;;15.03;39.00
66857;BME280;53766;50.280;19.160;2022-12-15T06:05:33;97427.75;;;15.02;39.31
66857;BME280;53766;50.280;19.160;2022-12-15T06:08:01;97433.63;;;15.05;39.32
66857;BME280;53766;50.280;19.160;2022-12-15T06:10:28;97432.84;;;15.04;39.17
66857;BME280;53766;50.280;19.160;2022-12-15T06:12:56;97440.78;;;15.04;39.39
66857;BME280;53766;50.280;19.160;2022-12-15T06:15:25;97449.78;;;15.03;39.14
66857;BME280;53766;50.280;19.160;2022-12-15T06:17:52;97448.13;;;15.02;39.49
66857;BME280;53766;50.280;19.160;2022-12-15T06:20:22;97451.00;;;15.00;39.17
66857;BME280;53766;50.280;19.160;2022-12-15T06:22:50;97465.88;;;15.01;39.20
66857;BME280;53766;50.280;19.160;2022-12-15T06:25:18;97470.38;;;15.01;39.42
66857;BME280;53766;50.280;19.160;2022-12-15T06:27:46;97487.91;;;15.02;39.74
66857;BME280;53766;50.280;19.160;2022-12-15T06:30:13;97487.72;;;15.04;39.87
66857;BME280;53766;50.280;19.160;2022-12-15T06:32:42;97478.94;;;15.03;40.07
66857;BME280;53766;50.280;19.160;2022-12-15T06:35:10;97482.59;;;15.02;40.56
66857;BME280;53766;50.280;19.160;2022-12-15T06:37:37;97498.50;;;15.02;40.25
66857;BME280;53766;50.280;19.160;2022-12-15T06:40:06;97505.47;;;15.03;40.67
66857;BME280;53766;50.280;19.160;2022-12-15T06:42:34;97506.47;;;15.02;40.42
66857;BME280;53766;50.280;19.160;2022-12-15T06:45:01;97508.31;;;15.01;40.32
66857;BME280;53766;50.280;19.160;2022-12-15T06:47:29;97511.16;;;15.00;40.40
66857;BME280;53766;50.280;19.160;2022-12-15T06:49:57;97501.59;;;14.99;40.42
66857;BME280;53766;50.280;19.160;2022-12-15T06:52:25;97505.84;;;15.00;40.50
66857;BME280;53766;50.280;19.160;2022-12-15T06:54:52;97510.16;;;15.01;40.43
66857;BME280;53766;50.280;19.160;2022-12-15T06:57:20;97509.34;;;15.00;40.33
66857;BME280;53766;50.280;19.160;2022-12-15T06:59:47;97515.47;;;15.01;40.68
66857;BME280;53766;50.280;19.160;2022-12-15T07:02:15;97512.81;;;15.01;40.30
66857;BME280;53766;50.280;19.160;2022-12-15T07:04:49;97520.16;;;14.99;40.63
66857;BME280;53766;50.280;19.160;2022-12-15T07:07:16;97533.41;;;14.99;40.52
66857;BME280;53766;50.280;19.160;2022-12-15T07:09:46;97536.66;;;15.01;40.22
66857;BME280;53766;50.280;19.160;2022-12-15T07:12:13;97548.28;;;15.00;40.21
66857;BME280;53766;50.280;19.160;2022-12-15T07:14:41;97566.84;;;15.00;40.13
66857;BME280;53766;50.280;19.160;2022-12-15T07:17:09;97567.88;;;14.99;40.26
66857;BME280;53766;50.280;19.160;2022-12-15T07:19:39;97570.72;;;14.97;40.50
66857;BME280;53766;50.280;19.160;2022-12-15T07:22:06;97577.25;;;14.95;40.14
66857;BME280;53766;50.280;19.160;2022-12-15T07:24:34;97589.69;;;14.94;40.25
66857;BME280;53766;50.280;19.160;2022-12-15T07:27:01;97591.53;;;14.94;40.38
66857;BME280;53766;50.280;19.160;2022-12-15T07:29:29;97593.16;;;14.95;40.40
66857;BME280;53766;50.280;19.160;2022-12-15T07:31:56;97586.44;;;14.92;40.25
66857;BME280;53766;50.280;19.160;2022-12-15T07:34:25;97590.69;;;14.93;40.26
66857;BME280;53766;50.280;19.160;2022-12-15T07:36:52;97602.16;;;14.94;40.15
66857;BME280;53766;50.280;19.160;2022-12-15T07:39:19;97597.03;;;14.92;40.31
66857;BME280;53766;50.280;19.160;2022-12-15T07:41:47;97613.75;;;14.93;40.18
66857;BME280;53766;50.280;19.160;2022-12-15T07:44:15;97618.44;;;14.91;40.14
66857;BME280;53766;50.280;19.160;2022-12-15T07:46:42;97610.47;;;14.91;40.08
66857;BME280;53766;50.280;19.160;2022-12-15T07:49:14;97608.63;;;14.91;39.99
66857;BME280;53766;50.280;19.160;2022-12-15T07:51:41;97608.63;;;14.91;40.08
66857;BME280;53766;50.280;19.160;2022-12-15T07:54:10;97612.50;;;14.89;40.29
66857;BME280;53766;50.280;19.160;2022-12-15T07:56:38;97621.28;;;14.89;40.20
66857;BME280;53766;50.280;19.160;2022-12-15T07:59:06;97623.75;;;14.91;40.20
66857;BME280;53766;50.280;19.160;2022-12-15T08:01:34;97630.25;;;14.88;40.08
66857;BME280;53766;50.280;19.160;2022-12-15T08:04:02;97629.03;;;14.91;40.16
66857;BME280;53766;50.280;19.160;2022-12-15T08:06:29;97629.03;;;14.91;39.90
66857;BME280;53766;50.280;19.160;2022-12-15T08:08:57;97626.59;;;14.89;39.71
66857;BME280;53766;50.280;19.160;2022-12-15T08:11:24;97637.41;;;14.88;39.89
66857;BME280;53766;50.280;19.160;2022-12-15T08:13:52;97636.56;;;14.87;39.75
66857;BME280;53766;50.280;19.160;2022-12-15T08:16:30;97647.16;;;14.87;40.19
66857;BME280;53766;50.280;19.160;2022-12-15T08:18:58;97648.00;;;14.88;39.92
66857;BME280;53766;50.280;19.160;2022-12-15T08:21:25;97664.91;;;14.87;40.00
66857;BME280;53766;50.280;19.160;2022-12-15T08:23:53;97668.38;;;14.87;39.79
66857;BME280;53766;50.280;19.160;2022-12-15T08:26:21;97675.53;;;14.87;40.00
66857;BME280;53766;50.280;19.160;2022-12-15T08:28:59;97682.47;;;14.88;39.98
66857;BME280;53766;50.280;19.160;2022-12-15T08:31:46;97674.72;;;14.86;39.91
66857;BME280;53766;50.280;19.160;2022-12-15T08:34:14;97675.75;;;14.85;39.60
66857;BME280;53766;50.280;19.160;2022-12-15T08:36:42;97681.63;;;14.87;39.72
66857;BME280;53766;50.280;19.160;2022-12-15T08:39:09;97681.84;;;14.86;39.78
66857;BME280;53766;50.280;19.160;2022-12-15T08:41:37;97687.97;;;14.86;39.91
66857;BME280;53766;50.280;19.160;2022-12-15T08:44:05;97700.41;;;14.86;39.60
66857;BME280;53766;50.280;19.160;2022-12-15T08:46:33;97688.16;;;14.85;39.71
66857;BME280;53766;50.280;19.160;2022-12-15T08:49:02;97688.16;;;14.85;39.75
66857;BME280;53766;50.280;19.160;2022-12-15T08:51:31;97693.06;;;14.81;39.73
66857;BME280;53766;50.280;19.160;2022-12-15T08:54:00;97695.91;;;14.79;39.71
66857;BME280;53766;50.280;19.160;2022-12-15T08:56:28;97692.22;;;14.80;39.88
66857;BME280;53766;50.280;19.160;2022-12-15T08:58:58;97694.25;;;14.78;39.85
66857;BME280;53766;50.280;19.160;2022-12-15T09:01:28;97691.59;;;14.78;39.96
66857;BME280;53766;50.280;19.160;2022-12-15T09:03:57;97694.25;;;14.78;40.00
66857;BME280;53766;50.280;19.160;2022-12-15T09:06:27;97688.94;;;14.78;39.65
66857;BME280;53766;50.280;19.160;2022-12-15T09:08:57;97698.75;;;14.78;39.91
66857;BME280;53766;50.280;19.160;2022-12-15T09:11:27;97691.00;;;14.76;39.77
66857;BME280;53766;50.280;19.160;2022-12-15T09:13:55;97701.63;;;14.76;40.01
66857;BME280;53766;50.280;19.160;2022-12-15T09:16:23;97705.25;;;14.75;39.82
66857;BME280;53766;50.280;19.160;2022-12-15T09:18:54;97706.28;;;14.74;39.99
66857;BME280;53766;50.280;19.160;2022-12-15T09:21:24;97695.06;;;14.72;39.85
66857;BME280;53766;50.280;19.160;2022-12-15T09:23:56;97695.88;;;14.73;40.13
66857;BME280;53766;50.280;19.160;2022-12-15T09:26:32;97692.19;;;14.74;39.72
66857;BME280;53766;50.280;19.160;2022-12-15T09:29:00;97705.66;;;14.72;39.76
66857;BME280;53766;50.280;19.160;2022-12-15T09:31:31;97712.59;;;14.73;39.73
66857;BME280;53766;50.280;19.160;2022-12-15T09:33:59;97708.50;;;14.71;40.08
66857;BME280;53766;50.280;19.160;2022-12-15T09:36:27;97720.13;;;14.70;40.14
66857;BME280;53766;50.280;19.160;2022-12-15T09:38:57;97717.69;;;14.68;39.89
66857;BME280;53766;50.280;19.160;2022-12-15T09:41:28;97725.63;;;14.68;39.83
66857;BME280;53766;50.280;19.160;2022-12-15T09:47:03;97727.25;;;14.69;39.92
66857;BME280;53766;50.280;19.160;2022-12-15T09:50:07;97739.50;;;14.70;39.60
66857;BME280;53766;50.280;19.160;2022-12-15T09:52:54;97746.84;;;14.68;40.09
66857;BME280;53766;50.280;19.160;2022-12-15T09:55:27;97731.75;;;14.69;39.76
66857;BME280;53766;50.280;19.160;2022-12-15T09:58:05;97737.03;;;14.69;39.80
66857;BME280;53766;50.280;19.160;2022-12-15T10:00:45;97729.09;;;14.69;39.70
66857;BME280;53766;50.280;19.160;2022-12-15T10:06:17;97718.69;;;14.67;39.76
66857;BME280;53766;50.280;19.160;2022-12-15T10:08:53;97737.03;;;14.69;39.78
66857;BME280;53766;50.280;19.160;2022-12-15T10:22:48;97744.81;;;14.70;40.39
66857;BME280;53766;50.280;19.160;2022-12-15T10:25:22;97750.09;;;14.70;40.11
66857;BME280;53766;50.280;19.160;2022-12-15T10:31:17;97725.22;;;14.71;40.37
66857;BME280;53766;50.280;19.160;2022-12-15T10:33:53;97729.53;;;14.72;40.60
66857;BME280;53766;50.280;19.160;2022-12-15T10:36:22;97723.38;;;14.72;40.40
66857;BME280;53766;50.280;19.160;2022-12-15T10:38:50;97729.53;;;14.72;40.37
66857;BME280;53766;50.280;19.160;2022-12-15T10:41:24;97724.00;;;14.74;40.71
66857;BME280;53766;50.280;19.160;2022-12-15T10:43:54;97726.88;;;14.72;40.77
66857;BME280;53766;50.280;19.160;2022-12-15T10:46:26;97717.91;;;14.73;40.50
66857;BME280;53766;50.280;19.160;2022-12-15T10:48:57;97720.34;;;14.75;40.60
66857;BME280;53766;50.280;19.160;2022-12-15T10:51:41;97714.25;;;14.74;40.71
66857;BME280;53766;50.280;19.160;2022-12-15T10:54:12;97712.22;;;14.76;40.73
66857;BME280;53766;50.280;19.160;2022-12-15T10:56:50;97719.94;;;14.78;40.67
66857;BME280;53766;50.280;19.160;2022-12-15T10:59:35;97724.88;;;14.81;40.33
66857;BME280;53766;50.280;19.160;2022-12-15T11:02:32;97735.50;;;14.88;40.61
66857;BME280;53766;50.280;19.160;2022-12-15T11:07:35;97739.41;;;14.98;40.27
66857;BME280;53766;50.280;19.160;2022-12-15T11:10:27;97749.63;;;15.08;40.48
66857;BME280;53766;50.280;19.160;2022-12-15T11:13:19;97749.81;;;15.07;40.50
66857;BME280;53766;50.280;19.160;2022-12-15T11:15:51;97755.59;;;15.17;40.45
66857;BME280;53766;50.280;19.160;2022-12-15T11:21:21;97756.03;;;15.27;40.26
66857;BME280;53766;50.280;19.160;2022-12-15T11:24:16;97772.34;;;15.31;40.13
66857;BME280;53766;50.280;19.160;2022-12-15T11:26:49;97757.66;;;15.35;39.99
66857;BME280;53766;50.280;19.160;2022-12-15T11:31:53;97771.16;;;15.40;40.10
66857;BME280;53766;50.280;19.160;2022-12-15T11:34:26;97773.03;;;15.46;39.73
66857;BME280;53766;50.280;19.160;2022-12-15T11:51:05;97777.75;;;15.64;39.57
66857;BME280;53766;50.280;19.160;2022-12-15T11:56:44;97781.41;;;15.70;39.54
66857;BME280;53766;50.280;19.160;2022-12-15T12:02:31;97789.63;;;15.75;39.47
66857;BME280;53766;50.280;19.160;2022-12-15T12:10:38;97806.19;;;15.77;39.45
66857;BME280;53766;50.280;19.160;2022-12-15T12:19:11;97803.53;;;15.83;39.21
66857;BME280;53766;50.280;19.160;2022-12-15T12:21:45;97802.72;;;15.83;39.39
66857;BME280;53766;50.280;19.160;2022-12-15T12:24:25;97796.56;;;15.89;39.37
66857;BME280;53766;50.280;19.160;2022-12-15T12:27:03;97788.41;;;15.91;39.11
66857;BME280;53766;50.280;19.160;2022-12-15T12:29:39;97787.59;;;15.90;39.09
66857;BME280;53766;50.280;19.160;2022-12-15T12:35:35;97779.63;;;15.90;39.18
66857;BME280;53766;50.280;19.160;2022-12-15T12:38:09;97788.22;;;15.92;39.16
66857;BME280;53766;50.280;19.160;2022-12-15T12:43:09;97798.22;;;15.90;39.31
66857;BME280;53766;50.280;19.160;2022-12-15T12:48:32;97790.47;;;15.95;39.07
66857;BME280;53766;50.280;19.160;2022-12-15T12:53:55;97785.56;;;15.92;39.19
66857;BME280;53766;50.280;19.160;2022-12-15T12:56:43;97787.00;;;15.95;38.97
66857;BME280;53766;50.280;19.160;2022-12-15T13:02:38;97802.13;;;15.94;39.07
66857;BME280;53766;50.280;19.160;2022-12-15T13:05:02;97813.75;;;15.93;39.09
66857;BME280;53766;50.280;19.160;2022-12-15T13:07:56;97805.59;;;15.95;39.10
66857;BME280;53766;50.280;19.160;2022-12-15T13:10:44;97800.28;;;15.95;38.97
66857;BME280;53766;50.280;19.160;2022-12-15T13:16:08;97797.81;;;15.93;39.18
66857;BME280;53766;50.280;19.160;2022-12-15T13:24:31;97802.13;;;15.94;39.07
66857;BME280;53766;50.280;19.160;2022-12-15T13:27:13;97800.47;;;15.93;39.08
66857;BME280;53766;50.280;19.160;2022-12-15T13:29:56;97800.28;;;15.95;38.85
66857;BME280;53766;50.280;19.160;2022-12-15T13:37:55;97801.50;;;15.92;39.07
66857;BME280;53766;50.280;19.160;2022-12-15T13:48:11;97815.59;;;15.86;39.12
66857;BME280;53766;50.280;19.160;2022-12-15T13:50:46;97823.97;;;15.83;38.95
66857;BME280;53766;50.280;19.160;2022-12-15T13:53:20;97831.31;;;15.81;39.05
66857;BME280;53766;50.280;19.160;2022-12-15T13:56:17;97836.63;;;15.81;38.99
66857;BME280;53766;50.280;19.160;2022-12-15T13:58:55;97831.69;;;15.78;38.96
66857;BME280;53766;50.280;19.160;2022-12-15T14:01:26;97832.50;;;15.78;39.05
66857;BME280;53766;50.280;19.160;2022-12-15T14:04:10;97842.31;;;15.78;39.05
66857;BME280;53766;50.280;19.160;2022-12-15T14:06:49;97852.31;;;15.76;39.04
66857;BME280;53766;50.280;19.160;2022-12-15T14:09:21;97853.34;;;15.75;38.93
66857;BME280;53766;50.280;19.160;2022-12-15T14:11:50;97854.16;;;15.75;38.98
66857;BME280;53766;50.280;19.160;2022-12-15T14:14:44;97867.00;;;15.72;38.96
66857;BME280;53766;50.280;19.160;2022-12-15T14:17:17;97871.31;;;15.73;39.16
66857;BME280;53766;50.280;19.160;2022-12-15T14:19:48;97866.81;;;15.73;39.05
66857;BME280;53766;50.280;19.160;2022-12-15T14:22:27;97859.03;;;15.72;38.90
66857;BME280;53766;50.280;19.160;2022-12-15T14:25:13;97866.34;;;15.70;38.99
66857;BME280;53766;50.280;19.160;2022-12-15T14:27:42;97878.00;;;15.69;39.03
66857;BME280;53766;50.280;19.160;2022-12-15T14:35:41;97899.88;;;15.71;38.98
66857;BME280;53766;50.280;19.160;2022-12-15T14:38:46;97905.56;;;15.68;38.92
66857;BME280;53766;50.280;19.160;2022-12-15T14:41:26;97908.44;;;15.66;39.11
66857;BME280;53766;50.280;19.160;2022-12-15T14:43:59;97898.63;;;15.67;38.79
66857;BME280;53766;50.280;19.160;2022-12-15T14:46:48;97892.50;;;15.66;38.94
66857;BME280;53766;50.280;19.160;2022-12-15T14:49:26;97895.97;;;15.67;39.09
66857;BME280;53766;50.280;19.160;2022-12-15T14:52:01;97895.97;;;15.67;38.85
66857;BME280;53766;50.280;19.160;2022-12-15T14:54:37;97908.44;;;15.66;38.96
66857;BME280;53766;50.280;19.160;2022-12-15T14:57:14;97923.53;;;15.66;38.85
66857;BME280;53766;50.280;19.160;2022-12-15T14:59:44;97918.22;;;15.66;39.05
66857;BME280;53766;50.280;19.160;2022-12-15T15:02:23;97911.47;;;15.63;38.83
66857;BME280;53766;50.280;19.160;2022-12-15T15:05:02;97911.47;;;15.63;39.02
66857;BME280;53766;50.280;19.160;2022-12-15T15:07:31;97911.69;;;15.61;38.81
66857;BME280;53766;50.280;19.160;2022-12-15T15:10:00;97917.00;;;15.61;38.81
66857;BME280;53766;50.280;19.160;2022-12-15T15:12:43;97909.41;;;15.58;38.96
66857;BME280;53766;50.280;19.160;2022-12-15T15:15:19;97913.91;;;15.58;38.96
66857;BME280;53766;50.280;19.160;2022-12-15T15:17:50;97910.84;;;15.61;38.73
66857;BME280;53766;50.280;19.160;2022-12-15T15:20:23;97916.38;;;15.59;38.79
66857;BME280;53766;50.280;19.160;2022-12-15T15:23:16;97908.81;;;15.63;38.75
66857;BME280;53766;50.280;19.160;2022-12-15T15:25:51;97911.28;;;15.64;38.91
66857;BME280;53766;50.280;19.160;2022-12-15T15:28:33;97922.53;;;15.67;38.90
66857;BME280;53766;50.280;19.160;2022-12-15T15:33:55;97926.78;;;15.68;38.88
66857;BME280;53766;50.280;19.160;2022-12-15T15:36:31;97931.09;;;15.69;38.63
66857;BME280;53766;50.280;19.160;2022-12-15T15:39:00;97930.28;;;15.68;38.61
66857;BME280;53766;50.280;19.160;2022-12-15T15:41:30;97933.75;;;15.69;38.69
66857;BME280;53766;50.280;19.160;2022-12-15T15:44:00;97935.38;;;15.70;38.79